createdAt,value
2018-04-21T00:00:12.095Z,9.70
2018-04-21T00:01:11.970Z,9.70
2018-04-21T00:02:11.841Z,9.64
2018-04-21T00:03:11.718Z,9.73
2018-04-21T00:04:11.595Z,9.64
2018-04-21T00:05:11.470Z,9.70
2018-04-21T00:06:11.345Z,9.68
2018-04-21T00:07:11.224Z,9.66
2018-04-21T00:08:11.101Z,9.63
2018-04-21T00:09:10.974Z,9.60
2018-04-21T00:10:10.848Z,9.56
2018-04-21T00:11:10.725Z,9.60
2018-04-21T00:12:10.599Z,9.50
2018-04-21T00:13:10.476Z,9.48
2018-04-21T00:14:10.350Z,9.27
2018-04-21T00:15:10.225Z,9.40
2018-04-21T00:16:10.101Z,9.31
2018-04-21T00:17:09.980Z,9.32
2018-04-21T00:18:09.853Z,9.42
2018-04-21T00:19:09.731Z,9.49
2018-04-21T00:20:09.602Z,9.52
2018-04-21T00:21:09.479Z,9.63
2018-04-21T00:22:09.356Z,9.56
2018-04-21T00:23:09.231Z,9.61
2018-04-21T00:24:09.106Z,9.58
2018-04-21T00:25:08.980Z,9.61
2018-04-21T00:26:08.856Z,9.64
2018-04-21T00:27:08.732Z,9.63
2018-04-21T00:28:08.606Z,9.66
2018-04-21T00:29:08.484Z,9.64
2018-04-21T00:30:08.356Z,9.66
2018-04-21T00:31:08.234Z,9.61
2018-04-21T00:32:08.109Z,9.64
2018-04-21T00:33:07.982Z,9.61
2018-04-21T00:34:07.856Z,9.67
2018-04-21T00:35:07.733Z,9.66
2018-04-21T00:36:07.610Z,9.66
2018-04-21T00:37:07.487Z,9.61
2018-04-21T00:38:07.359Z,9.64
2018-04-21T00:39:07.236Z,9.66
2018-04-21T00:40:07.112Z,9.63
2018-04-21T00:41:06.986Z,9.64
2018-04-21T00:42:06.863Z,9.57
2018-04-21T00:43:06.735Z,9.56
2018-04-21T00:44:06.611Z,9.63
2018-04-21T00:45:06.488Z,9.53
2018-04-21T00:46:06.361Z,9.56
2018-04-21T00:47:06.235Z,9.52
2018-04-21T00:48:06.112Z,9.58
2018-04-21T00:49:05.988Z,9.52
2018-04-21T00:50:05.865Z,9.45
2018-04-21T00:51:05.739Z,9.50
2018-04-21T00:52:05.618Z,9.52
2018-04-21T00:53:05.490Z,9.52
2018-04-21T00:54:05.365Z,9.53
2018-04-21T00:55:05.242Z,9.57
2018-04-21T00:56:05.116Z,9.57
2018-04-21T00:57:04.995Z,9.60
2018-04-21T00:58:04.866Z,9.60
2018-04-21T00:59:04.741Z,9.63
2018-04-21T01:00:04.620Z,9.57
2018-04-21T01:01:04.500Z,9.58
2018-04-21T01:02:04.373Z,9.57
2018-04-21T01:03:04.244Z,9.50
2018-04-21T01:04:04.122Z,9.52
2018-04-21T01:05:03.994Z,9.52
2018-04-21T01:06:03.884Z,9.39
2018-04-21T01:07:03.744Z,9.46
2018-04-21T01:08:03.646Z,9.40
2018-04-21T01:09:03.493Z,9.42
2018-04-21T01:10:03.374Z,9.43
2018-04-21T01:11:03.247Z,9.46
2018-04-21T01:12:03.123Z,9.43
2018-04-21T01:13:02.995Z,9.35
2018-04-21T01:14:02.873Z,9.40
2018-04-21T01:15:02.746Z,9.48
2018-04-21T01:16:02.623Z,9.45
2018-04-21T01:17:02.495Z,9.49
2018-04-21T01:18:02.371Z,9.34
2018-04-21T01:19:02.249Z,9.42
2018-04-21T01:20:02.119Z,9.42
2018-04-21T01:21:02.003Z,9.43
2018-04-21T01:22:01.872Z,9.30
2018-04-21T01:23:01.747Z,9.32
2018-04-21T01:24:01.622Z,9.32
2018-04-21T01:25:01.500Z,9.24
2018-04-21T01:26:01.369Z,9.30
2018-04-21T01:27:01.249Z,9.28
2018-04-21T01:28:01.121Z,9.23
2018-04-21T01:29:00.998Z,9.30
2018-04-21T01:30:00.873Z,9.28
2018-04-21T01:31:00.749Z,9.35
2018-04-21T01:32:00.623Z,9.35
2018-04-21T01:33:00.497Z,9.35
2018-04-21T01:34:00.373Z,9.42
2018-04-21T01:35:00.247Z,9.31
2018-04-21T01:36:00.120Z,9.32
2018-04-21T01:37:00.000Z,9.38
2018-04-21T01:37:59.875Z,9.34
2018-04-21T01:38:59.747Z,9.34
2018-04-21T01:39:59.622Z,9.28
2018-04-21T01:40:59.499Z,9.38
2018-04-21T01:41:59.373Z,9.39
2018-04-21T01:42:59.246Z,9.34
2018-04-21T01:43:59.123Z,9.42
2018-04-21T01:44:58.999Z,9.38
2018-04-21T01:45:58.873Z,9.42
2018-04-21T01:46:58.747Z,9.40
2018-04-21T01:47:58.633Z,9.31
2018-04-21T01:48:58.500Z,9.40
2018-04-21T01:49:58.373Z,9.32
2018-04-21T01:50:58.249Z,9.28
2018-04-21T01:51:58.125Z,9.35
2018-04-21T01:52:57.998Z,9.27
2018-04-21T01:53:57.873Z,9.34
2018-04-21T01:54:57.750Z,9.35
2018-04-21T01:55:57.622Z,9.23
2018-04-21T01:56:57.500Z,9.23
2018-04-21T01:57:57.373Z,9.16
2018-04-21T01:58:57.249Z,9.21
2018-04-21T01:59:57.130Z,9.20
2018-04-21T02:00:57.003Z,9.21
2018-04-21T02:01:56.873Z,9.10
2018-04-21T02:02:56.751Z,9.20
2018-04-21T02:03:56.625Z,9.10
2018-04-21T02:04:56.501Z,9.16
2018-04-21T02:05:56.375Z,9.24
2018-04-21T02:06:56.248Z,9.20
2018-04-21T02:08:17.093Z,9.25
2018-04-21T02:08:56.010Z,9.20
2018-04-21T02:09:55.877Z,9.18
2018-04-21T02:10:55.748Z,9.16
2018-04-21T02:11:55.629Z,9.23
2018-04-21T02:12:55.500Z,9.34
2018-04-21T02:13:55.374Z,9.42
2018-04-21T02:14:55.255Z,9.34
2018-04-21T02:15:55.124Z,9.34
2018-04-21T02:16:55.002Z,9.32
2018-04-21T02:18:15.841Z,9.27
2018-04-21T02:18:54.750Z,9.20
2018-04-21T02:20:09.256Z,9.24
2018-04-21T02:20:54.501Z,9.06
2018-04-21T02:21:54.373Z,9.05
2018-04-21T02:22:54.250Z,8.87
2018-04-21T02:23:54.126Z,8.97
2018-04-21T02:24:54.000Z,9.10
2018-04-21T02:25:53.873Z,9.16
2018-04-21T02:26:53.755Z,9.06
2018-04-21T02:27:53.623Z,8.93
2018-04-21T02:28:53.504Z,8.87
2018-04-21T02:29:53.372Z,8.87
2018-04-21T02:30:53.251Z,8.79
2018-04-21T02:31:53.121Z,8.83
2018-04-21T02:32:53.001Z,8.76
2018-04-21T02:33:52.875Z,8.78
2018-04-21T02:34:52.748Z,8.86
2018-04-21T02:35:52.624Z,8.76
2018-04-21T02:36:52.497Z,8.75
2018-04-21T02:37:52.371Z,8.71
2018-04-21T02:38:52.252Z,8.68
2018-04-21T02:39:52.123Z,8.69
2018-04-21T02:40:51.998Z,8.68
2018-04-21T02:41:51.873Z,8.71
2018-04-21T02:42:51.749Z,8.71
2018-04-21T02:43:51.622Z,8.72
2018-04-21T02:44:51.499Z,8.81
2018-04-21T02:45:51.372Z,8.97
2018-04-21T02:46:51.245Z,8.94
2018-04-21T02:47:51.123Z,8.75
2018-04-21T02:48:50.997Z,8.76
2018-04-21T02:49:50.873Z,8.75
2018-04-21T02:50:50.762Z,8.69
2018-04-21T02:51:50.623Z,8.73
2018-04-21T02:52:50.497Z,8.69
2018-04-21T02:53:50.372Z,8.71
2018-04-21T02:54:50.246Z,8.68
2018-04-21T02:55:50.119Z,8.69
2018-04-21T02:56:49.994Z,8.65
2018-04-21T02:57:49.870Z,8.62
2018-04-21T02:58:49.742Z,8.60
2018-04-21T02:59:49.616Z,8.75
2018-04-21T03:00:49.493Z,8.66
2018-04-21T03:01:49.369Z,8.69
2018-04-21T03:02:49.239Z,8.69
2018-04-21T03:03:49.115Z,8.78
2018-04-21T03:04:48.994Z,8.72
2018-04-21T03:05:48.862Z,8.66
2018-04-21T03:06:48.737Z,8.71
2018-04-21T03:07:48.612Z,8.73
2018-04-21T03:08:48.487Z,8.71
2018-04-21T03:09:48.361Z,8.69
2018-04-21T03:10:48.237Z,8.63
2018-04-21T03:11:48.111Z,8.66
2018-04-21T03:12:47.994Z,8.66
2018-04-21T03:13:47.863Z,8.63
2018-04-21T03:14:47.743Z,8.72
2018-04-21T03:15:47.612Z,8.72
2018-04-21T03:16:47.489Z,8.72
2018-04-21T03:17:47.361Z,8.69
2018-04-21T03:18:47.235Z,8.79
2018-04-21T03:19:47.110Z,8.72
2018-04-21T03:20:46.990Z,8.69
2018-04-21T03:21:46.860Z,8.72
2018-04-21T03:22:46.733Z,8.71
2018-04-21T03:23:46.607Z,8.69
2018-04-21T03:24:46.480Z,8.58
2018-04-21T03:25:46.360Z,8.69
2018-04-21T03:26:46.229Z,8.60
2018-04-21T03:27:46.105Z,8.60
2018-04-21T03:28:45.994Z,8.65
2018-04-21T03:29:45.853Z,8.66
2018-04-21T03:30:45.731Z,8.66
2018-04-21T03:31:45.608Z,8.58
2018-04-21T03:32:45.479Z,8.73
2018-04-21T03:33:45.353Z,8.71
2018-04-21T03:34:45.227Z,8.63
2018-04-21T03:35:45.103Z,8.60
2018-04-21T03:36:44.977Z,8.72
2018-04-21T03:37:44.854Z,8.58
2018-04-21T03:38:44.724Z,8.69
2018-04-21T03:39:44.599Z,8.66
2018-04-21T03:40:44.475Z,8.71
2018-04-21T03:41:44.351Z,8.63
2018-04-21T03:42:44.230Z,8.71
2018-04-21T03:43:44.101Z,8.66
2018-04-21T03:44:43.974Z,8.65
2018-04-21T03:45:43.848Z,8.58
2018-04-21T03:46:43.768Z,8.55
2018-04-21T03:47:43.598Z,8.60
2018-04-21T03:48:43.470Z,8.54
2018-04-21T03:49:43.349Z,8.60
2018-04-21T03:50:43.222Z,8.58
2018-04-21T03:51:43.094Z,8.63
2018-04-21T03:52:42.969Z,8.60
2018-04-21T03:53:42.843Z,8.66
2018-04-21T03:54:42.717Z,8.60
2018-04-21T03:55:42.594Z,8.55
2018-04-21T03:56:42.468Z,8.57
2018-04-21T03:57:42.340Z,8.53
2018-04-21T03:58:42.218Z,8.55
2018-04-21T03:59:42.094Z,8.51
2018-04-21T04:00:41.970Z,8.51
2018-04-21T04:01:41.840Z,8.54
2018-04-21T04:02:41.714Z,8.63
2018-04-21T04:03:41.588Z,8.63
2018-04-21T04:04:41.465Z,8.58
2018-04-21T04:05:41.334Z,8.63
2018-04-21T04:06:41.217Z,8.55
2018-04-21T04:07:41.087Z,8.58
2018-04-21T04:08:40.961Z,8.69
2018-04-21T04:09:40.836Z,8.63
2018-04-21T04:10:40.710Z,8.51
2018-04-21T04:11:40.583Z,8.65
2018-04-21T04:12:40.459Z,8.54
2018-04-21T04:13:40.332Z,8.66
2018-04-21T04:14:40.208Z,8.60
2018-04-21T04:15:40.091Z,8.54
2018-04-21T04:16:39.957Z,8.45
2018-04-21T04:17:39.830Z,8.55
2018-04-21T04:18:39.704Z,8.55
2018-04-21T04:19:39.579Z,8.51
2018-04-21T04:20:39.455Z,8.65
2018-04-21T04:21:39.327Z,8.65
2018-04-21T04:22:39.203Z,8.60
2018-04-21T04:23:39.101Z,8.65
2018-04-21T04:24:38.953Z,8.60
2018-04-21T04:25:38.824Z,8.72
2018-04-21T04:26:38.702Z,8.72
2018-04-21T04:27:38.574Z,8.69
2018-04-21T04:28:38.452Z,8.76
2018-04-21T04:29:38.323Z,8.69
2018-04-21T04:30:38.201Z,8.72
2018-04-21T04:31:38.072Z,8.68
2018-04-21T04:32:37.948Z,8.76
2018-04-21T04:33:37.822Z,8.88
2018-04-21T04:34:37.696Z,8.78
2018-04-21T04:35:37.572Z,8.76
2018-04-21T04:36:37.449Z,8.75
2018-04-21T04:37:37.318Z,8.79
2018-04-21T04:38:37.197Z,8.72
2018-04-21T04:39:37.067Z,8.75
2018-04-21T04:40:36.944Z,8.76
2018-04-21T04:41:36.822Z,8.78
2018-04-21T04:42:36.692Z,8.76
2018-04-21T04:43:36.569Z,8.79
2018-04-21T04:44:36.445Z,8.71
2018-04-21T04:45:36.315Z,8.68
2018-04-21T04:46:36.191Z,8.66
2018-04-21T04:47:36.066Z,8.68
2018-04-21T04:48:35.941Z,8.69
2018-04-21T04:49:35.814Z,8.71
2018-04-21T04:50:35.696Z,8.69
2018-04-21T04:51:35.566Z,8.76
2018-04-21T04:52:35.443Z,8.73
2018-04-21T04:53:35.313Z,8.78
2018-04-21T04:54:35.189Z,8.90
2018-04-21T04:55:35.063Z,8.94
2018-04-21T04:56:34.938Z,8.93
2018-04-21T04:57:34.817Z,8.87
2018-04-21T04:58:34.686Z,8.88
2018-04-21T04:59:34.566Z,8.73
2018-04-21T05:00:34.437Z,8.93
2018-04-21T05:01:34.309Z,8.91
2018-04-21T05:02:34.182Z,8.88
2018-04-21T05:03:34.058Z,8.94
2018-04-21T05:04:33.932Z,8.91
2018-04-21T05:05:33.807Z,8.91
2018-04-21T05:06:33.683Z,8.94
2018-04-21T05:07:33.557Z,8.91
2018-04-21T05:08:33.434Z,8.96
2018-04-21T05:09:33.303Z,8.91
2018-04-21T05:10:33.181Z,9.01
2018-04-21T05:11:33.094Z,9.02
2018-04-21T05:12:32.931Z,9.04
2018-04-21T05:13:32.803Z,9.05
2018-04-21T05:14:32.683Z,9.04
2018-04-21T05:15:32.552Z,9.04
2018-04-21T05:16:32.451Z,8.99
2018-04-21T05:17:32.304Z,8.99
2018-04-21T05:18:32.178Z,8.94
2018-04-21T05:19:32.058Z,8.96
2018-04-21T05:20:31.928Z,9.04
2018-04-21T05:21:31.803Z,9.04
2018-04-21T05:22:31.678Z,9.28
2018-04-21T05:23:31.550Z,9.60
2018-04-21T05:24:31.432Z,9.83
2018-04-21T05:25:31.304Z,9.88
2018-04-21T05:26:31.178Z,10.01
2018-04-21T05:27:31.055Z,10.17
2018-04-21T05:28:30.935Z,10.30
2018-04-21T05:29:30.803Z,10.39
2018-04-21T05:30:30.679Z,10.56
2018-04-21T05:31:30.557Z,10.62
2018-04-21T05:32:30.431Z,10.74
2018-04-21T05:33:30.306Z,10.92
2018-04-21T05:34:30.229Z,10.99
2018-04-21T05:35:30.058Z,11.01
2018-04-21T05:36:29.934Z,11.03
2018-04-21T05:37:29.812Z,11.02
2018-04-21T05:38:29.685Z,11.11
2018-04-21T05:39:29.580Z,11.21
2018-04-21T05:40:29.438Z,11.21
2018-04-21T05:41:29.311Z,11.20
2018-04-21T05:42:29.188Z,11.34
2018-04-21T05:43:29.065Z,11.46
2018-04-21T05:44:28.941Z,11.52
2018-04-21T05:45:28.818Z,11.57
2018-04-21T05:46:28.698Z,11.65
2018-04-21T05:47:28.570Z,11.70
2018-04-21T05:48:28.448Z,11.68
2018-04-21T05:49:28.336Z,11.75
2018-04-21T05:50:28.230Z,11.78
2018-04-21T05:51:28.080Z,11.77
2018-04-21T05:52:27.961Z,11.70
2018-04-21T05:53:27.831Z,11.78
2018-04-21T05:54:27.707Z,11.83
2018-04-21T05:55:27.583Z,11.86
2018-04-21T05:56:27.462Z,11.97
2018-04-21T05:57:27.338Z,12.38
2018-04-21T05:58:27.216Z,12.30
2018-04-21T05:59:27.091Z,12.41
2018-04-21T06:00:26.972Z,12.37
2018-04-21T06:01:26.849Z,12.44
2018-04-21T06:02:26.724Z,12.56
2018-04-21T06:03:26.602Z,12.67
2018-04-21T06:04:26.479Z,12.66
2018-04-21T06:05:26.359Z,12.78
2018-04-21T06:06:26.233Z,12.85
2018-04-21T06:07:26.123Z,12.85
2018-04-21T06:08:25.987Z,12.88
2018-04-21T06:09:25.867Z,12.79
2018-04-21T06:10:25.742Z,12.87
2018-04-21T06:11:25.619Z,12.77
2018-04-21T06:12:25.497Z,12.77
2018-04-21T06:13:25.375Z,12.82
2018-04-21T06:14:25.251Z,12.82
2018-04-21T06:15:25.129Z,12.67
2018-04-21T06:16:25.008Z,12.78
2018-04-21T06:17:24.884Z,12.77
2018-04-21T06:18:24.762Z,12.89
2018-04-21T06:19:24.641Z,13.12
2018-04-21T06:20:24.517Z,13.29
2018-04-21T06:21:24.394Z,13.41
2018-04-21T06:22:24.271Z,13.56
2018-04-21T06:23:24.148Z,13.44
2018-04-21T06:24:24.028Z,13.44
2018-04-21T06:25:23.903Z,13.38
2018-04-21T06:26:23.783Z,13.56
2018-04-21T06:27:23.660Z,13.73
2018-04-21T06:28:23.539Z,13.81
2018-04-21T06:29:23.416Z,13.91
2018-04-21T06:30:23.295Z,13.92
2018-04-21T06:31:23.169Z,13.91
2018-04-21T06:32:23.051Z,13.95
2018-04-21T06:33:22.927Z,13.92
2018-04-21T06:34:22.806Z,13.98
2018-04-21T06:35:22.683Z,14.09
2018-04-21T06:36:22.566Z,14.19
2018-04-21T06:37:22.442Z,14.20
2018-04-21T06:38:22.319Z,14.24
2018-04-21T06:39:22.194Z,14.19
2018-04-21T06:40:22.077Z,14.21
2018-04-21T06:41:21.953Z,14.37
2018-04-21T06:42:21.831Z,14.60
2018-04-21T06:43:21.729Z,14.49
2018-04-21T06:44:21.593Z,14.74
2018-04-21T06:45:21.468Z,14.72
2018-04-21T06:46:21.344Z,14.83
2018-04-21T06:47:21.225Z,14.65
2018-04-21T06:48:21.101Z,14.72
2018-04-21T06:49:20.978Z,14.64
2018-04-21T06:50:20.861Z,14.34
2018-04-21T06:51:20.742Z,13.99
2018-04-21T06:52:20.622Z,13.87
2018-04-21T06:53:20.496Z,14.07
2018-04-21T06:54:20.501Z,14.20
2018-04-21T06:55:20.254Z,14.24
2018-04-21T06:56:20.136Z,14.12
2018-04-21T06:57:20.013Z,14.21
2018-04-21T06:58:19.888Z,14.42
2018-04-21T06:59:19.768Z,14.53
2018-04-21T07:00:19.646Z,14.67
2018-04-21T07:01:19.525Z,14.69
2018-04-21T07:02:19.408Z,14.74
2018-04-21T07:03:19.286Z,14.68
2018-04-21T07:04:19.162Z,14.74
2018-04-21T07:05:19.038Z,14.94
2018-04-21T07:06:18.917Z,15.11
2018-04-21T07:07:18.794Z,15.05
2018-04-21T07:08:18.676Z,15.03
2018-04-21T07:09:18.552Z,15.03
2018-04-21T07:10:18.435Z,15.08
2018-04-21T07:11:18.309Z,14.95
2018-04-21T07:12:18.191Z,15.06
2018-04-21T07:13:18.072Z,15.17
2018-04-21T07:14:17.947Z,15.19
2018-04-21T07:15:17.826Z,15.21
2018-04-21T07:16:17.706Z,15.13
2018-04-21T07:17:17.583Z,15.03
2018-04-21T07:18:17.463Z,15.06
2018-04-21T07:19:17.362Z,15.09
2018-04-21T07:20:17.257Z,15.17
2018-04-21T07:21:17.108Z,15.03
2018-04-21T07:22:16.979Z,15.06
2018-04-21T07:23:16.863Z,14.93
2018-04-21T07:24:16.736Z,15.02
2018-04-21T07:25:16.613Z,15.06
2018-04-21T07:26:16.492Z,15.20
2018-04-21T07:27:16.377Z,15.33
2018-04-21T07:28:16.253Z,15.41
2018-04-21T07:29:16.132Z,15.57
2018-04-21T07:30:16.009Z,15.42
2018-04-21T07:31:15.888Z,15.54
2018-04-21T07:32:15.767Z,15.36
2018-04-21T07:33:15.647Z,15.43
2018-04-21T07:34:15.526Z,15.43
2018-04-21T07:35:15.405Z,15.46
2018-04-21T07:36:15.327Z,15.63
2018-04-21T07:37:15.162Z,15.66
2018-04-21T07:38:15.046Z,15.64
2018-04-21T07:39:14.919Z,15.74
2018-04-21T07:40:14.804Z,15.97
2018-04-21T07:41:14.681Z,16.12
2018-04-21T07:42:14.556Z,16.11
2018-04-21T07:43:14.439Z,16.34
2018-04-21T07:44:14.339Z,16.35
2018-04-21T07:45:14.197Z,16.35
2018-04-21T07:46:14.078Z,16.38
2018-04-21T07:47:13.959Z,16.35
2018-04-21T07:48:13.837Z,16.31
2018-04-21T07:49:13.718Z,16.41
2018-04-21T07:50:13.630Z,16.53
2018-04-21T07:51:13.477Z,16.49
2018-04-21T07:52:13.359Z,16.58
2018-04-21T07:53:13.236Z,16.73
2018-04-21T07:54:13.117Z,16.80
2018-04-21T07:55:12.996Z,16.86
2018-04-21T07:56:12.875Z,16.90
2018-04-21T07:57:12.758Z,17.06
2018-04-21T07:58:12.636Z,16.99
2018-04-21T07:59:12.516Z,16.98
2018-04-21T08:00:12.395Z,16.99
2018-04-21T08:01:12.277Z,17.33
2018-04-21T08:02:12.160Z,17.59
2018-04-21T08:03:12.038Z,17.59
2018-04-21T08:04:11.922Z,17.69
2018-04-21T08:05:11.801Z,17.87
2018-04-21T08:06:11.682Z,17.76
2018-04-21T08:07:11.561Z,17.59
2018-04-21T08:08:11.441Z,17.55
2018-04-21T08:09:11.327Z,17.64
2018-04-21T08:10:11.203Z,17.57
2018-04-21T08:11:11.084Z,17.73
2018-04-21T08:12:10.980Z,17.67
2018-04-21T08:13:10.845Z,17.82
2018-04-21T08:14:10.727Z,17.82
2018-04-21T08:15:10.610Z,17.81
2018-04-21T08:16:10.572Z,17.81
2018-04-21T08:17:10.369Z,17.89
2018-04-21T08:18:10.314Z,17.99
2018-04-21T08:19:10.139Z,18.18
2018-04-21T08:20:10.016Z,18.22
2018-04-21T08:21:09.895Z,18.24
2018-04-21T08:22:09.779Z,18.49
2018-04-21T08:23:09.784Z,18.47
2018-04-21T08:24:09.541Z,18.47
2018-04-21T08:25:09.427Z,18.43
2018-04-21T08:26:09.309Z,18.33
2018-04-21T08:27:09.186Z,18.42
2018-04-21T08:28:09.069Z,18.42
2018-04-21T08:29:08.950Z,18.49
2018-04-21T08:30:08.833Z,18.52
2018-04-21T08:31:08.714Z,18.43
2018-04-21T08:32:08.599Z,18.37
2018-04-21T08:33:08.476Z,18.46
2018-04-21T08:34:08.360Z,18.49
2018-04-21T08:35:08.245Z,18.52
2018-04-21T08:36:08.156Z,18.65
2018-04-21T08:37:08.007Z,18.84
2018-04-21T08:38:07.888Z,18.97
2018-04-21T08:39:07.770Z,18.77
2018-04-21T08:40:07.653Z,18.83
2018-04-21T08:41:07.558Z,18.90
2018-04-21T08:42:07.418Z,19.01
2018-04-21T08:43:07.299Z,19.08
2018-04-21T08:44:07.181Z,19.10
2018-04-21T08:45:07.063Z,19.08
2018-04-21T08:46:06.958Z,19.29
2018-04-21T08:47:06.828Z,19.48
2018-04-21T08:48:06.713Z,19.36
2018-04-21T08:49:06.595Z,19.39
2018-04-21T08:50:06.477Z,19.35
2018-04-21T08:51:06.361Z,19.35
2018-04-21T08:52:06.243Z,19.33
2018-04-21T08:53:06.126Z,19.50
2018-04-21T08:54:06.015Z,19.35
2018-04-21T08:55:05.891Z,19.36
2018-04-21T08:56:05.786Z,19.55
2018-04-21T08:57:05.657Z,19.63
2018-04-21T08:58:05.557Z,19.66
2018-04-21T08:59:05.423Z,19.69
2018-04-21T09:00:05.314Z,19.61
2018-04-21T09:01:05.187Z,19.68
2018-04-21T09:02:05.073Z,19.66
2018-04-21T09:03:05.022Z,19.75
2018-04-21T09:04:04.868Z,19.79
2018-04-21T09:05:04.757Z,19.78
2018-04-21T09:06:04.604Z,19.79
2018-04-21T09:07:04.487Z,19.69
2018-04-21T09:08:04.369Z,19.63
2018-04-21T09:09:04.253Z,19.80
2018-04-21T09:10:04.705Z,19.88
2018-04-21T09:11:04.018Z,19.90
2018-04-21T09:12:03.901Z,19.95
2018-04-21T09:13:03.783Z,20.02
2018-04-21T09:14:03.666Z,19.98
2018-04-21T09:15:03.561Z,19.88
2018-04-21T09:16:03.435Z,19.91
2018-04-21T09:17:03.316Z,20.24
2018-04-21T09:18:03.200Z,20.12
2018-04-21T09:19:03.084Z,20.25
2018-04-21T09:20:02.966Z,20.16
2018-04-21T09:21:02.846Z,20.25
2018-04-21T09:22:02.795Z,20.39
2018-04-21T09:23:02.693Z,20.47
2018-04-21T09:24:02.497Z,20.58
2018-04-21T09:25:02.379Z,20.56
2018-04-21T09:26:02.265Z,20.02
2018-04-21T09:27:02.147Z,20.15
2018-04-21T09:28:02.089Z,20.23
2018-04-21T09:29:01.923Z,20.39
2018-04-21T09:30:01.807Z,20.59
2018-04-21T09:31:01.679Z,20.72
2018-04-21T09:32:01.567Z,20.90
2018-04-21T09:33:01.446Z,21.08
2018-04-21T09:34:01.330Z,21.16
2018-04-21T09:35:01.213Z,21.09
2018-04-21T09:36:01.098Z,20.95
2018-04-21T09:37:00.984Z,20.90
2018-04-21T09:38:00.863Z,20.59
2018-04-21T09:39:00.747Z,20.62
2018-04-21T09:40:00.684Z,20.77
2018-04-21T09:41:00.511Z,20.77
2018-04-21T09:42:00.400Z,20.77
2018-04-21T09:43:00.444Z,20.86
2018-04-21T09:44:00.162Z,21.09
2018-04-21T09:45:00.050Z,20.96
2018-04-21T09:46:00.343Z,20.79
2018-04-21T09:46:59.829Z,20.89
2018-04-21T09:47:59.705Z,21.20
2018-04-21T09:48:59.582Z,21.30
2018-04-21T09:49:59.466Z,21.14
2018-04-21T09:50:59.347Z,20.95
2018-04-21T09:51:59.231Z,20.61
2018-04-21T09:52:59.114Z,20.41
2018-04-21T09:53:58.997Z,20.51
2018-04-21T09:54:58.883Z,20.69
2018-04-21T09:55:58.765Z,20.90
2018-04-21T09:56:58.652Z,21.27
2018-04-21T09:57:58.534Z,20.96
2018-04-21T09:58:58.417Z,21.17
2018-04-21T09:59:58.300Z,21.20
2018-04-21T10:00:58.185Z,21.32
2018-04-21T10:01:58.065Z,21.59
2018-04-21T10:02:57.951Z,21.66
2018-04-21T10:03:57.835Z,21.79
2018-04-21T10:04:57.717Z,21.39
2018-04-21T10:05:57.602Z,21.39
2018-04-21T10:06:57.484Z,21.39
2018-04-21T10:07:57.367Z,21.41
2018-04-21T10:08:57.251Z,21.57
2018-04-21T10:09:57.143Z,21.61
2018-04-21T10:10:57.021Z,21.57
2018-04-21T10:11:56.905Z,21.63
2018-04-21T10:12:56.789Z,21.90
2018-04-21T10:13:56.673Z,22.09
2018-04-21T10:14:56.601Z,21.94
2018-04-21T10:15:56.441Z,21.88
2018-04-21T10:16:56.327Z,21.81
2018-04-21T10:17:56.207Z,21.85
2018-04-21T10:18:56.105Z,21.71
2018-04-21T10:19:55.978Z,21.97
2018-04-21T10:20:55.862Z,21.98
2018-04-21T10:21:55.748Z,21.85
2018-04-21T10:22:55.635Z,21.61
2018-04-21T10:23:55.515Z,21.67
2018-04-21T10:24:55.405Z,21.99
2018-04-21T10:25:55.286Z,22.23
2018-04-21T10:26:55.170Z,22.23
2018-04-21T10:27:55.054Z,22.14
2018-04-21T10:28:54.939Z,22.37
2018-04-21T10:29:54.824Z,22.31
2018-04-21T10:30:54.743Z,22.38
2018-04-21T10:31:54.597Z,22.46
2018-04-21T10:32:54.480Z,22.39
2018-04-21T10:33:54.365Z,22.54
2018-04-21T10:34:54.248Z,22.69
2018-04-21T10:35:54.198Z,22.75
2018-04-21T10:36:54.090Z,22.65
2018-04-21T10:37:54.062Z,22.46
2018-04-21T10:38:53.895Z,22.46
2018-04-21T10:39:53.786Z,22.62
2018-04-21T10:40:53.571Z,23.05
2018-04-21T10:41:53.446Z,22.92
2018-04-21T10:42:53.332Z,22.89
2018-04-21T10:43:53.222Z,22.59
2018-04-21T10:44:53.106Z,22.39
2018-04-21T10:45:52.993Z,22.53
2018-04-21T10:46:52.887Z,22.96
2018-04-21T10:47:52.761Z,22.82
2018-04-21T10:48:52.745Z,22.86
2018-04-21T10:49:52.540Z,22.71
2018-04-21T10:50:52.431Z,22.72
2018-04-21T10:51:52.328Z,22.87
2018-04-21T10:52:52.196Z,23.24
2018-04-21T10:53:52.079Z,23.40
2018-04-21T10:54:51.965Z,23.31
2018-04-21T10:55:51.848Z,23.39
2018-04-21T10:56:51.737Z,23.64
2018-04-21T10:57:51.640Z,23.87
2018-04-21T10:58:51.538Z,24.05
2018-04-21T10:59:51.396Z,24.08
2018-04-21T11:00:51.278Z,24.34
2018-04-21T11:01:51.163Z,24.59
2018-04-21T11:02:51.048Z,24.67
2018-04-21T11:03:50.935Z,24.37
2018-04-21T11:04:50.823Z,24.35
2018-04-21T11:05:50.709Z,24.38
2018-04-21T11:06:50.596Z,24.37
2018-04-21T11:07:50.482Z,24.07
2018-04-21T11:08:50.367Z,24.12
2018-04-21T11:09:50.253Z,24.29
2018-04-21T11:10:50.142Z,23.94
2018-04-21T11:11:50.032Z,23.90
2018-04-21T11:12:49.915Z,24.52
2018-04-21T11:13:49.805Z,24.57
2018-04-21T11:14:49.687Z,24.59
2018-04-21T11:15:49.574Z,24.17
2018-04-21T11:16:49.467Z,24.29
2018-04-21T11:17:49.350Z,24.35
2018-04-21T11:18:49.237Z,24.22
2018-04-21T11:19:49.123Z,24.38
2018-04-21T11:20:49.009Z,24.73
2018-04-21T11:21:48.895Z,24.63
2018-04-21T11:22:48.810Z,24.69
2018-04-21T11:23:48.670Z,24.75
2018-04-21T11:24:48.557Z,24.97
2018-04-21T11:25:48.445Z,24.75
2018-04-21T11:26:48.333Z,24.68
2018-04-21T11:27:48.217Z,24.54
2018-04-21T11:28:48.103Z,24.64
2018-04-21T11:29:47.993Z,24.88
2018-04-21T11:30:47.884Z,24.73
2018-04-21T11:31:47.766Z,24.31
2018-04-21T11:32:47.652Z,23.80
2018-04-21T11:33:47.588Z,24.13
2018-04-21T11:34:47.428Z,24.10
2018-04-21T11:35:47.313Z,24.38
2018-04-21T11:36:47.203Z,24.76
2018-04-21T11:37:47.503Z,24.39
2018-04-21T11:38:47.013Z,24.56
2018-04-21T11:39:46.886Z,24.20
2018-04-21T11:40:46.751Z,24.08
2018-04-21T11:41:46.641Z,23.95
2018-04-21T11:42:46.524Z,23.68
2018-04-21T11:43:46.412Z,23.32
2018-04-21T11:44:46.302Z,22.97
2018-04-21T11:45:46.185Z,23.01
2018-04-21T11:46:46.074Z,23.01
2018-04-21T11:47:45.960Z,23.04
2018-04-21T11:48:45.846Z,23.34
2018-04-21T11:49:45.735Z,23.43
2018-04-21T11:50:45.630Z,23.43
2018-04-21T11:51:45.507Z,23.67
2018-04-21T11:52:45.407Z,23.94
2018-04-21T11:53:45.279Z,24.60
2018-04-21T11:54:45.168Z,24.98
2018-04-21T11:55:45.056Z,25.25
2018-04-21T11:56:44.942Z,25.56
2018-04-21T11:57:44.829Z,25.71
2018-04-21T11:58:44.720Z,25.84
2018-04-21T11:59:44.606Z,25.65
2018-04-21T12:00:44.494Z,25.20
2018-04-21T12:01:44.380Z,24.52
2018-04-21T12:02:44.289Z,24.31
2018-04-21T12:03:44.205Z,23.65
2018-04-21T12:04:44.093Z,23.71
2018-04-21T12:05:44.053Z,22.84
2018-04-21T12:06:43.820Z,23.34
2018-04-21T12:07:43.707Z,23.46
2018-04-21T12:08:43.593Z,23.60
2018-04-21T12:09:43.487Z,23.89
2018-04-21T12:10:43.377Z,24.24
2018-04-21T12:11:43.537Z,24.59
2018-04-21T12:12:43.258Z,24.69
2018-04-21T12:13:43.130Z,24.57
2018-04-21T12:14:42.923Z,24.97
2018-04-21T12:15:42.812Z,25.28
2018-04-21T12:16:42.698Z,25.28
2018-04-21T12:17:42.584Z,25.84
2018-04-21T12:18:42.476Z,25.46
2018-04-21T12:19:42.361Z,25.54
2018-04-21T12:20:42.248Z,25.67
2018-04-21T12:21:42.137Z,25.64
2018-04-21T12:22:42.027Z,25.71
2018-04-21T12:23:41.915Z,25.87
2018-04-21T12:24:41.802Z,26.15
2018-04-21T12:25:41.690Z,26.47
2018-04-21T12:26:41.597Z,26.20
2018-04-21T12:27:41.468Z,26.81
2018-04-21T12:28:41.365Z,26.04
2018-04-21T12:29:41.245Z,26.39
2018-04-21T12:30:41.134Z,26.61
2018-04-21T12:31:41.023Z,27.06
2018-04-21T12:32:40.911Z,27.11
2018-04-21T12:33:40.800Z,27.23
2018-04-21T12:34:40.691Z,25.43
2018-04-21T12:35:40.678Z,24.35
2018-04-21T12:36:40.468Z,24.07
2018-04-21T12:37:40.357Z,24.56
2018-04-21T12:38:40.245Z,24.67
2018-04-21T12:39:40.137Z,25.28
2018-04-21T12:40:40.022Z,25.68
2018-04-21T12:41:39.915Z,25.89
2018-04-21T12:42:39.800Z,25.77
2018-04-21T12:43:39.691Z,25.53
2018-04-21T12:44:39.581Z,25.50
2018-04-21T12:45:39.470Z,25.69
2018-04-21T12:46:39.354Z,26.09
2018-04-21T12:47:39.246Z,26.68
2018-04-21T12:48:39.138Z,27.05
2018-04-21T12:49:39.023Z,27.76
2018-04-21T12:50:38.912Z,27.53
2018-04-21T12:51:38.800Z,26.24
2018-04-21T12:52:38.691Z,26.06
2018-04-21T12:53:38.578Z,26.29
2018-04-21T12:54:38.468Z,26.43
2018-04-21T12:55:38.361Z,26.69
2018-04-21T12:56:38.248Z,26.80
2018-04-21T12:57:38.157Z,26.84
2018-04-21T12:58:38.023Z,26.95
2018-04-21T12:59:37.912Z,26.52
2018-04-21T13:00:37.800Z,27.09
2018-04-21T13:01:37.693Z,27.05